sensor_id;sensor_type;location;lat;lon;timestamp;P1;durP1;ratioP1;P2;durP2;ratioP2
35691;SDS011;26978;44.830;-0.674;2023-05-16T00:01:27;9.30;;;4.90;;
35691;SDS011;26978;44.830;-0.674;2023-05-16T00:03:54;10.77;;;5.10;;
35691;SDS011;26978;44.830;-0.674;2023-05-16T00:06:20;9.98;;;5.05;;
35691;SDS011;26978;44.830;-0.674;2023-05-16T00:08:47;6.80;;;5.43;;
35691;SDS011;26978;44.830;-0.674;2023-05-16T00:11:13;7.18;;;5.30;;
35691;SDS011;26978;44.830;-0.674;2023-05-16T00:13:40;14.23;;;5.95;;
35691;SDS011;26978;44.830;-0.674;2023-05-16T00:16:06;10.02;;;6.85;;
35691;SDS011;26978;44.830;-0.674;2023-05-16T00:18:33;9.00;;;6.10;;
35691;SDS011;26978;44.830;-0.674;2023-05-16T00:21:01;9.88;;;6.50;;
35691;SDS011;26978;44.830;-0.674;2023-05-16T00:23:27;10.85;;;6.82;;
35691;SDS011;26978;44.830;-0.674;2023-05-16T00:25:53;10.82;;;6.80;;
35691;SDS011;26978;44.830;-0.674;2023-05-16T00:28:18;13.07;;;6.88;;
35691;SDS011;26978;44.830;-0.674;2023-05-16T00:30:44;10.40;;;7.07;;
35691;SDS011;26978;44.830;-0.674;2023-05-16T00:33:10;16.75;;;8.45;;
35691;SDS011;26978;44.830;-0.674;2023-05-16T00:35:35;11.77;;;7.90;;
35691;SDS011;26978;44.830;-0.674;2023-05-16T00:38:02;12.93;;;7.38;;
35691;SDS011;26978;44.830;-0.674;2023-05-16T00:40:28;18.77;;;7.97;;
35691;SDS011;26978;44.830;-0.674;2023-05-16T00:42:53;16.15;;;8.48;;
35691;SDS011;26978;44.830;-0.674;2023-05-16T00:45:19;12.15;;;7.40;;
35691;SDS011;26978;44.830;-0.674;2023-05-16T00:47:45;14.48;;;7.65;;
35691;SDS011;26978;44.830;-0.674;2023-05-16T00:50:10;10.43;;;8.65;;
35691;SDS011;26978;44.830;-0.674;2023-05-16T00:52:36;13.60;;;8.48;;
35691;SDS011;26978;44.830;-0.674;2023-05-16T00:55:02;11.90;;;9.18;;
35691;SDS011;26978;44.830;-0.674;2023-05-16T00:57:28;13.10;;;8.88;;
35691;SDS011;26978;44.830;-0.674;2023-05-16T00:59:54;21.13;;;9.77;;
35691;SDS011;26978;44.830;-0.674;2023-05-16T01:02:20;13.05;;;9.35;;
35691;SDS011;26978;44.830;-0.674;2023-05-16T01:04:46;13.45;;;9.18;;
35691;SDS011;26978;44.830;-0.674;2023-05-16T01:07:12;17.23;;;9.63;;
35691;SDS011;26978;44.830;-0.674;2023-05-16T01:09:38;12.23;;;9.85;;
35691;SDS011;26978;44.830;-0.674;2023-05-16T01:12:26;13.15;;;8.95;;
35691;SDS011;26978;44.830;-0.674;2023-05-16T01:15:12;16.27;;;9.25;;
35691;SDS011;26978;44.830;-0.674;2023-05-16T01:25:55;15.57;;;10.40;;
35691;SDS011;26978;44.830;-0.674;2023-05-16T01:28:27;16.63;;;11.45;;
35691;SDS011;26978;44.830;-0.674;2023-05-16T01:30:54;15.38;;;10.90;;
35691;SDS011;26978;44.830;-0.674;2023-05-16T01:33:19;17.60;;;11.43;;
35691;SDS011;26978;44.830;-0.674;2023-05-16T01:35:57;19.02;;;12.52;;
35691;SDS011;26978;44.830;-0.674;2023-05-16T01:38:38;20.42;;;13.35;;
35691;SDS011;26978;44.830;-0.674;2023-05-16T01:41:23;19.83;;;14.40;;
35691;SDS011;26978;44.830;-0.674;2023-05-16T01:43:59;24.40;;;17.10;;
35691;SDS011;26978;44.830;-0.674;2023-05-16T01:51:51;15.30;;;11.10;;
35691;SDS011;26978;44.830;-0.674;2023-05-16T01:54:21;15.07;;;10.30;;
35691;SDS011;26978;44.830;-0.674;2023-05-16T01:56:51;13.50;;;9.80;;
35691;SDS011;26978;44.830;-0.674;2023-05-16T01:59:19;16.60;;;10.00;;
35691;SDS011;26978;44.830;-0.674;2023-05-16T02:01:46;12.48;;;9.75;;
35691;SDS011;26978;44.830;-0.674;2023-05-16T02:04:12;14.80;;;10.93;;
35691;SDS011;26978;44.830;-0.674;2023-05-16T02:06:39;12.02;;;9.43;;
35691;SDS011;26978;44.830;-0.674;2023-05-16T02:09:05;11.88;;;9.15;;
35691;SDS011;26978;44.830;-0.674;2023-05-16T02:11:32;11.88;;;8.60;;
35691;SDS011;26978;44.830;-0.674;2023-05-16T02:13:58;12.90;;;8.82;;
35691;SDS011;26978;44.830;-0.674;2023-05-16T02:16:23;12.43;;;8.60;;
35691;SDS011;26978;44.830;-0.674;2023-05-16T02:18:49;11.52;;;8.20;;
35691;SDS011;26978;44.830;-0.674;2023-05-16T02:21:15;13.90;;;8.00;;
35691;SDS011;26978;44.830;-0.674;2023-05-16T02:23:40;11.43;;;8.52;;
35691;SDS011;26978;44.830;-0.674;2023-05-16T02:26:06;11.07;;;7.50;;
35691;SDS011;26978;44.830;-0.674;2023-05-16T02:28:31;13.13;;;7.80;;
35691;SDS011;26978;44.830;-0.674;2023-05-16T02:30:58;11.45;;;8.48;;
35691;SDS011;26978;44.830;-0.674;2023-05-16T02:33:24;11.00;;;7.35;;
35691;SDS011;26978;44.830;-0.674;2023-05-16T02:35:51;12.27;;;8.18;;
35691;SDS011;26978;44.830;-0.674;2023-05-16T02:38:17;13.68;;;8.10;;
35691;SDS011;26978;44.830;-0.674;2023-05-16T02:40:45;10.00;;;7.25;;
35691;SDS011;26978;44.830;-0.674;2023-05-16T02:43:11;14.93;;;7.85;;
35691;SDS011;26978;44.830;-0.674;2023-05-16T02:45:37;10.43;;;8.10;;
35691;SDS011;26978;44.830;-0.674;2023-05-16T02:48:02;14.77;;;7.90;;
35691;SDS011;26978;44.830;-0.674;2023-05-16T02:50:28;10.85;;;8.02;;
35691;SDS011;26978;44.830;-0.674;2023-05-16T02:52:54;10.15;;;6.68;;
35691;SDS011;26978;44.830;-0.674;2023-05-16T02:55:19;13.35;;;8.02;;
35691;SDS011;26978;44.830;-0.674;2023-05-16T02:57:45;11.88;;;7.40;;
35691;SDS011;26978;44.830;-0.674;2023-05-16T03:00:11;9.63;;;8.20;;
35691;SDS011;26978;44.830;-0.674;2023-05-16T03:02:38;11.57;;;7.70;;
35691;SDS011;26978;44.830;-0.674;2023-05-16T03:05:03;13.10;;;8.20;;
35691;SDS011;26978;44.830;-0.674;2023-05-16T03:07:30;7.57;;;6.88;;
35691;SDS011;26978;44.830;-0.674;2023-05-16T03:09:56;10.27;;;6.68;;
35691;SDS011;26978;44.830;-0.674;2023-05-16T03:12:21;10.57;;;7.30;;
35691;SDS011;26978;44.830;-0.674;2023-05-16T03:14:47;14.02;;;7.75;;
35691;SDS011;26978;44.830;-0.674;2023-05-16T03:17:12;10.63;;;7.10;;
35691;SDS011;26978;44.830;-0.674;2023-05-16T03:19:38;9.20;;;6.70;;
35691;SDS011;26978;44.830;-0.674;2023-05-16T03:22:04;10.23;;;7.45;;
35691;SDS011;26978;44.830;-0.674;2023-05-16T03:24:29;9.40;;;6.55;;
35691;SDS011;26978;44.830;-0.674;2023-05-16T03:26:55;12.10;;;6.45;;
35691;SDS011;26978;44.830;-0.674;2023-05-16T03:29:21;7.50;;;5.68;;
35691;SDS011;26978;44.830;-0.674;2023-05-16T03:31:47;10.73;;;5.47;;
35691;SDS011;26978;44.830;-0.674;2023-05-16T03:34:13;9.32;;;5.38;;
35691;SDS011;26978;44.830;-0.674;2023-05-16T03:36:38;8.10;;;5.13;;
35691;SDS011;26978;44.830;-0.674;2023-05-16T03:39:05;8.48;;;4.97;;
35691;SDS011;26978;44.830;-0.674;2023-05-16T03:41:32;10.32;;;5.40;;
35691;SDS011;26978;44.830;-0.674;2023-05-16T03:43:59;13.63;;;5.35;;
35691;SDS011;26978;44.830;-0.674;2023-05-16T03:46:24;7.38;;;5.07;;
35691;SDS011;26978;44.830;-0.674;2023-05-16T03:48:50;9.23;;;5.50;;
35691;SDS011;26978;44.830;-0.674;2023-05-16T03:51:16;8.70;;;5.22;;
35691;SDS011;26978;44.830;-0.674;2023-05-16T03:53:41;9.27;;;4.70;;
35691;SDS011;26978;44.830;-0.674;2023-05-16T03:56:07;13.82;;;5.50;;
35691;SDS011;26978;44.830;-0.674;2023-05-16T03:58:33;9.23;;;4.80;;
35691;SDS011;26978;44.830;-0.674;2023-05-16T04:00:58;9.88;;;4.53;;
35691;SDS011;26978;44.830;-0.674;2023-05-16T04:03:24;13.45;;;4.80;;
35691;SDS011;26978;44.830;-0.674;2023-05-16T04:05:53;15.23;;;4.35;;
35691;SDS011;26978;44.830;-0.674;2023-05-16T04:08:19;10.52;;;4.30;;
35691;SDS011;26978;44.830;-0.674;2023-05-16T04:10:45;6.97;;;4.05;;
35691;SDS011;26978;44.830;-0.674;2023-05-16T04:13:11;8.55;;;3.72;;
35691;SDS011;26978;44.830;-0.674;2023-05-16T04:15:36;13.88;;;3.83;;
35691;SDS011;26978;44.830;-0.674;2023-05-16T04:18:03;6.80;;;3.78;;
35691;SDS011;26978;44.830;-0.674;2023-05-16T04:20:29;12.05;;;3.35;;
35691;SDS011;26978;44.830;-0.674;2023-05-16T04:22:54;8.13;;;4.10;;
35691;SDS011;26978;44.830;-0.674;2023-05-16T04:25:20;7.35;;;3.70;;
35691;SDS011;26978;44.830;-0.674;2023-05-16T04:27:46;8.77;;;3.28;;
35691;SDS011;26978;44.830;-0.674;2023-05-16T04:30:11;9.40;;;3.33;;
35691;SDS011;26978;44.830;-0.674;2023-05-16T04:32:38;9.63;;;3.30;;
35691;SDS011;26978;44.830;-0.674;2023-05-16T04:35:04;10.95;;;3.38;;
35691;SDS011;26978;44.830;-0.674;2023-05-16T04:37:33;8.32;;;2.83;;
35691;SDS011;26978;44.830;-0.674;2023-05-16T04:39:59;8.07;;;3.83;;
35691;SDS011;26978;44.830;-0.674;2023-05-16T04:42:25;10.20;;;3.28;;
35691;SDS011;26978;44.830;-0.674;2023-05-16T04:44:51;10.60;;;3.20;;
35691;SDS011;26978;44.830;-0.674;2023-05-16T04:47:17;8.95;;;3.45;;
35691;SDS011;26978;44.830;-0.674;2023-05-16T04:49:42;9.43;;;2.95;;
35691;SDS011;26978;44.830;-0.674;2023-05-16T04:52:08;8.38;;;2.85;;
35691;SDS011;26978;44.830;-0.674;2023-05-16T04:54:34;7.57;;;3.30;;
35691;SDS011;26978;44.830;-0.674;2023-05-16T04:56:59;11.40;;;3.53;;
35691;SDS011;26978;44.830;-0.674;2023-05-16T04:59:25;9.55;;;3.60;;
35691;SDS011;26978;44.830;-0.674;2023-05-16T05:01:51;7.95;;;2.60;;
35691;SDS011;26978;44.830;-0.674;2023-05-16T05:04:16;15.75;;;2.92;;
35691;SDS011;26978;44.830;-0.674;2023-05-16T05:06:42;9.68;;;2.92;;
35691;SDS011;26978;44.830;-0.674;2023-05-16T05:09:09;12.00;;;2.78;;
35691;SDS011;26978;44.830;-0.674;2023-05-16T05:11:35;5.78;;;2.83;;
35691;SDS011;26978;44.830;-0.674;2023-05-16T05:14:00;11.00;;;2.95;;
35691;SDS011;26978;44.830;-0.674;2023-05-16T05:16:26;11.88;;;2.67;;
35691;SDS011;26978;44.830;-0.674;2023-05-16T05:18:52;4.80;;;2.10;;
35691;SDS011;26978;44.830;-0.674;2023-05-16T05:21:17;11.40;;;3.55;;
35691;SDS011;26978;44.830;-0.674;2023-05-16T05:23:44;11.63;;;3.30;;
35691;SDS011;26978;44.830;-0.674;2023-05-16T05:26:10;6.03;;;2.38;;
35691;SDS011;26978;44.830;-0.674;2023-05-16T05:28:36;6.00;;;2.33;;
35691;SDS011;26978;44.830;-0.674;2023-05-16T05:31:02;11.52;;;3.38;;
35691;SDS011;26978;44.830;-0.674;2023-05-16T05:33:29;13.35;;;2.67;;
35691;SDS011;26978;44.830;-0.674;2023-05-16T05:35:55;11.13;;;3.00;;
35691;SDS011;26978;44.830;-0.674;2023-05-16T05:38:21;10.48;;;2.78;;
35691;SDS011;26978;44.830;-0.674;2023-05-16T05:40:47;5.13;;;2.10;;
35691;SDS011;26978;44.830;-0.674;2023-05-16T05:43:13;8.90;;;2.70;;
35691;SDS011;26978;44.830;-0.674;2023-05-16T05:45:39;8.60;;;3.03;;
35691;SDS011;26978;44.830;-0.674;2023-05-16T05:48:05;8.30;;;2.92;;
35691;SDS011;26978;44.830;-0.674;2023-05-16T05:50:32;8.43;;;2.65;;
35691;SDS011;26978;44.830;-0.674;2023-05-16T05:52:58;9.05;;;3.35;;
35691;SDS011;26978;44.830;-0.674;2023-05-16T05:55:23;9.55;;;2.88;;
35691;SDS011;26978;44.830;-0.674;2023-05-16T05:57:49;7.53;;;3.13;;
35691;SDS011;26978;44.830;-0.674;2023-05-16T06:00:15;9.70;;;2.90;;
35691;SDS011;26978;44.830;-0.674;2023-05-16T06:02:41;13.13;;;3.25;;
35691;SDS011;26978;44.830;-0.674;2023-05-16T06:05:07;17.13;;;3.20;;
35691;SDS011;26978;44.830;-0.674;2023-05-16T06:07:33;10.90;;;3.47;;
35691;SDS011;26978;44.830;-0.674;2023-05-16T06:09:58;6.43;;;2.70;;
35691;SDS011;26978;44.830;-0.674;2023-05-16T06:12:28;9.27;;;3.00;;
35691;SDS011;26978;44.830;-0.674;2023-05-16T06:14:54;13.93;;;3.78;;
35691;SDS011;26978;44.830;-0.674;2023-05-16T06:17:20;11.07;;;3.10;;
35691;SDS011;26978;44.830;-0.674;2023-05-16T06:19:46;14.60;;;3.45;;
35691;SDS011;26978;44.830;-0.674;2023-05-16T06:22:11;13.73;;;3.97;;
35691;SDS011;26978;44.830;-0.674;2023-05-16T06:24:37;6.68;;;3.20;;
35691;SDS011;26978;44.830;-0.674;2023-05-16T06:27:03;13.27;;;3.47;;
35691;SDS011;26978;44.830;-0.674;2023-05-16T06:29:28;9.73;;;3.53;;
35691;SDS011;26978;44.830;-0.674;2023-05-16T06:31:54;10.40;;;3.63;;
35691;SDS011;26978;44.830;-0.674;2023-05-16T06:34:20;12.48;;;3.88;;
35691;SDS011;26978;44.830;-0.674;2023-05-16T06:36:51;14.52;;;3.95;;
35691;SDS011;26978;44.830;-0.674;2023-05-16T06:39:17;12.48;;;3.90;;
35691;SDS011;26978;44.830;-0.674;2023-05-16T06:41:43;11.98;;;3.60;;
35691;SDS011;26978;44.830;-0.674;2023-05-16T06:44:09;9.82;;;3.78;;
35691;SDS011;26978;44.830;-0.674;2023-05-16T06:46:35;12.88;;;3.80;;
35691;SDS011;26978;44.830;-0.674;2023-05-16T06:49:02;13.23;;;3.80;;
35691;SDS011;26978;44.830;-0.674;2023-05-16T06:51:29;16.60;;;3.90;;
35691;SDS011;26978;44.830;-0.674;2023-05-16T06:53:55;11.70;;;3.80;;
35691;SDS011;26978;44.830;-0.674;2023-05-16T06:56:21;13.32;;;3.97;;
35691;SDS011;26978;44.830;-0.674;2023-05-16T06:58:47;11.20;;;3.42;;
35691;SDS011;26978;44.830;-0.674;2023-05-16T07:01:13;10.90;;;3.10;;
35691;SDS011;26978;44.830;-0.674;2023-05-16T07:03:39;9.52;;;3.65;;
35691;SDS011;26978;44.830;-0.674;2023-05-16T07:06:05;11.77;;;3.17;;
35691;SDS011;26978;44.830;-0.674;2023-05-16T07:08:31;13.25;;;3.40;;
35691;SDS011;26978;44.830;-0.674;2023-05-16T07:10:57;8.23;;;3.78;;
35691;SDS011;26978;44.830;-0.674;2023-05-16T07:13:22;10.60;;;4.25;;
35691;SDS011;26978;44.830;-0.674;2023-05-16T07:15:48;10.18;;;3.85;;
35691;SDS011;26978;44.830;-0.674;2023-05-16T07:18:14;11.68;;;3.83;;
35691;SDS011;26978;44.830;-0.674;2023-05-16T07:20:39;11.60;;;3.45;;
35691;SDS011;26978;44.830;-0.674;2023-05-16T07:23:05;10.45;;;4.30;;
35691;SDS011;26978;44.830;-0.674;2023-05-16T07:25:31;12.25;;;3.67;;
35691;SDS011;26978;44.830;-0.674;2023-05-16T07:27:57;10.65;;;3.38;;
35691;SDS011;26978;44.830;-0.674;2023-05-16T07:30:23;13.98;;;3.25;;
35691;SDS011;26978;44.830;-0.674;2023-05-16T07:32:49;8.43;;;3.50;;
35691;SDS011;26978;44.830;-0.674;2023-05-16T07:35:15;8.57;;;3.38;;
35691;SDS011;26978;44.830;-0.674;2023-05-16T07:37:40;18.17;;;3.60;;
35691;SDS011;26978;44.830;-0.674;2023-05-16T07:40:07;14.52;;;3.83;;
35691;SDS011;26978;44.830;-0.674;2023-05-16T07:42:34;13.15;;;3.45;;
35691;SDS011;26978;44.830;-0.674;2023-05-16T07:45:00;16.63;;;4.10;;
35691;SDS011;26978;44.830;-0.674;2023-05-16T07:47:26;16.27;;;3.50;;
35691;SDS011;26978;44.830;-0.674;2023-05-16T07:49:52;10.00;;;2.83;;
35691;SDS011;26978;44.830;-0.674;2023-05-16T07:52:17;12.63;;;4.07;;
35691;SDS011;26978;44.830;-0.674;2023-05-16T07:54:44;10.77;;;2.92;;
35691;SDS011;26978;44.830;-0.674;2023-05-16T07:57:10;7.45;;;2.33;;
35691;SDS011;26978;44.830;-0.674;2023-05-16T07:59:37;10.68;;;2.95;;
35691;SDS011;26978;44.830;-0.674;2023-05-16T08:02:03;13.60;;;3.03;;
35691;SDS011;26978;44.830;-0.674;2023-05-16T08:04:29;10.07;;;2.58;;
35691;SDS011;26978;44.830;-0.674;2023-05-16T08:06:55;5.75;;;2.30;;
35691;SDS011;26978;44.830;-0.674;2023-05-16T08:09:20;6.05;;;2.22;;
35691;SDS011;26978;44.830;-0.674;2023-05-16T08:11:46;8.35;;;1.83;;
35691;SDS011;26978;44.830;-0.674;2023-05-16T08:14:11;9.27;;;2.20;;
35691;SDS011;26978;44.830;-0.674;2023-05-16T08:16:37;7.75;;;2.13;;
35691;SDS011;26978;44.830;-0.674;2023-05-16T08:19:03;7.95;;;2.42;;
35691;SDS011;26978;44.830;-0.674;2023-05-16T08:21:28;12.23;;;2.75;;
35691;SDS011;26978;44.830;-0.674;2023-05-16T08:23:55;12.00;;;2.28;;
35691;SDS011;26978;44.830;-0.674;2023-05-16T08:26:21;10.75;;;2.17;;
35691;SDS011;26978;44.830;-0.674;2023-05-16T08:28:47;9.35;;;2.00;;
35691;SDS011;26978;44.830;-0.674;2023-05-16T08:31:13;12.93;;;2.20;;
35691;SDS011;26978;44.830;-0.674;2023-05-16T08:33:38;10.82;;;2.67;;
35691;SDS011;26978;44.830;-0.674;2023-05-16T08:36:04;7.03;;;2.08;;
35691;SDS011;26978;44.830;-0.674;2023-05-16T08:38:31;7.05;;;2.05;;
35691;SDS011;26978;44.830;-0.674;2023-05-16T08:40:57;6.53;;;1.80;;
35691;SDS011;26978;44.830;-0.674;2023-05-16T08:43:22;7.03;;;2.05;;
35691;SDS011;26978;44.830;-0.674;2023-05-16T08:45:48;5.22;;;1.88;;
35691;SDS011;26978;44.830;-0.674;2023-05-16T08:50:49;10.80;;;1.80;;
35691;SDS011;26978;44.830;-0.674;2023-05-16T08:53:16;8.73;;;2.03;;
35691;SDS011;26978;44.830;-0.674;2023-05-16T08:55:46;6.88;;;1.48;;
35691;SDS011;26978;44.830;-0.674;2023-05-16T08:58:13;6.20;;;1.52;;
35691;SDS011;26978;44.830;-0.674;2023-05-16T09:00:40;6.63;;;1.95;;
35691;SDS011;26978;44.830;-0.674;2023-05-16T09:03:06;7.35;;;1.88;;
35691;SDS011;26978;44.830;-0.674;2023-05-16T09:05:32;7.68;;;1.52;;
35691;SDS011;26978;44.830;-0.674;2023-05-16T09:07:58;7.50;;;1.67;;
35691;SDS011;26978;44.830;-0.674;2023-05-16T09:10:24;4.53;;;1.45;;
35691;SDS011;26978;44.830;-0.674;2023-05-16T09:12:49;6.93;;;1.50;;
35691;SDS011;26978;44.830;-0.674;2023-05-16T09:15:17;9.02;;;1.90;;
35691;SDS011;26978;44.830;-0.674;2023-05-16T09:17:44;3.58;;;1.30;;
35691;SDS011;26978;44.830;-0.674;2023-05-16T09:22:57;6.38;;;1.70;;
35691;SDS011;26978;44.830;-0.674;2023-05-16T09:25:25;10.27;;;1.25;;
35691;SDS011;26978;44.830;-0.674;2023-05-16T09:27:53;10.45;;;1.98;;
35691;SDS011;26978;44.830;-0.674;2023-05-16T09:30:23;4.72;;;1.30;;
35691;SDS011;26978;44.830;-0.674;2023-05-16T09:32:55;3.40;;;1.27;;
35691;SDS011;26978;44.830;-0.674;2023-05-16T09:35:21;5.20;;;1.23;;
35691;SDS011;26978;44.830;-0.674;2023-05-16T09:37:48;4.18;;;1.48;;
35691;SDS011;26978;44.830;-0.674;2023-05-16T09:40:19;5.05;;;1.88;;
35691;SDS011;26978;44.830;-0.674;2023-05-16T09:42:45;4.75;;;1.48;;
35691;SDS011;26978;44.830;-0.674;2023-05-16T09:45:12;2.80;;;1.20;;
35691;SDS011;26978;44.830;-0.674;2023-05-16T09:47:38;7.05;;;1.70;;
35691;SDS011;26978;44.830;-0.674;2023-05-16T09:50:10;7.25;;;1.70;;
35691;SDS011;26978;44.830;-0.674;2023-05-16T09:52:40;6.40;;;1.55;;
35691;SDS011;26978;44.830;-0.674;2023-05-16T09:55:07;4.85;;;1.60;;
35691;SDS011;26978;44.830;-0.674;2023-05-16T09:57:37;6.32;;;1.27;;
35691;SDS011;26978;44.830;-0.674;2023-05-16T10:00:06;6.35;;;1.73;;
35691;SDS011;26978;44.830;-0.674;2023-05-16T10:02:35;6.72;;;1.42;;
35691;SDS011;26978;44.830;-0.674;2023-05-16T10:05:02;4.85;;;1.35;;
35691;SDS011;26978;44.830;-0.674;2023-05-16T10:07:28;4.28;;;1.42;;
35691;SDS011;26978;44.830;-0.674;2023-05-16T10:10:04;6.82;;;1.75;;
35691;SDS011;26978;44.830;-0.674;2023-05-16T10:12:31;6.03;;;1.38;;
35691;SDS011;26978;44.830;-0.674;2023-05-16T10:15:02;5.40;;;1.55;;
35691;SDS011;26978;44.830;-0.674;2023-05-16T10:17:29;7.28;;;2.13;;
35691;SDS011;26978;44.830;-0.674;2023-05-16T10:20:04;5.25;;;1.05;;
35691;SDS011;26978;44.830;-0.674;2023-05-16T10:22:34;3.80;;;1.27;;
35691;SDS011;26978;44.830;-0.674;2023-05-16T10:27:49;7.35;;;1.42;;
35691;SDS011;26978;44.830;-0.674;2023-05-16T10:30:16;4.75;;;1.52;;
35691;SDS011;26978;44.830;-0.674;2023-05-16T10:32:42;11.90;;;1.75;;
35691;SDS011;26978;44.830;-0.674;2023-05-16T10:35:11;6.80;;;1.42;;
35691;SDS011;26978;44.830;-0.674;2023-05-16T10:37:37;7.05;;;1.30;;
35691;SDS011;26978;44.830;-0.674;2023-05-16T10:40:04;5.55;;;1.40;;
35691;SDS011;26978;44.830;-0.674;2023-05-16T10:42:32;7.03;;;1.52;;
35691;SDS011;26978;44.830;-0.674;2023-05-16T10:47:52;4.10;;;1.40;;
35691;SDS011;26978;44.830;-0.674;2023-05-16T10:50:35;10.40;;;1.20;;
35691;SDS011;26978;44.830;-0.674;2023-05-16T10:58:03;4.93;;;1.35;;
35691;SDS011;26978;44.830;-0.674;2023-05-16T11:00:29;6.65;;;1.67;;
35691;SDS011;26978;44.830;-0.674;2023-05-16T11:02:59;7.38;;;1.92;;
35691;SDS011;26978;44.830;-0.674;2023-05-16T11:05:30;3.53;;;1.17;;
35691;SDS011;26978;44.830;-0.674;2023-05-16T11:08:02;8.52;;;1.27;;
35691;SDS011;26978;44.830;-0.674;2023-05-16T11:10:30;4.03;;;1.17;;
35691;SDS011;26978;44.830;-0.674;2023-05-16T11:13:01;4.97;;;1.80;;
35691;SDS011;26978;44.830;-0.674;2023-05-16T11:15:31;3.03;;;1.17;;
35691;SDS011;26978;44.830;-0.674;2023-05-16T11:18:14;5.97;;;1.45;;
35691;SDS011;26978;44.830;-0.674;2023-05-16T11:20:41;6.00;;;1.98;;
35691;SDS011;26978;44.830;-0.674;2023-05-16T11:25:46;2.85;;;1.30;;
35691;SDS011;26978;44.830;-0.674;2023-05-16T11:28:19;7.13;;;1.52;;
35691;SDS011;26978;44.830;-0.674;2023-05-16T11:30:49;4.40;;;1.30;;
35691;SDS011;26978;44.830;-0.674;2023-05-16T11:33:16;5.28;;;1.50;;
35691;SDS011;26978;44.830;-0.674;2023-05-16T11:35:43;3.38;;;1.30;;
35691;SDS011;26978;44.830;-0.674;2023-05-16T11:38:23;4.50;;;0.98;;
35691;SDS011;26978;44.830;-0.674;2023-05-16T11:40:49;9.63;;;1.95;;
35691;SDS011;26978;44.830;-0.674;2023-05-16T11:43:17;6.75;;;1.42;;
35691;SDS011;26978;44.830;-0.674;2023-05-16T11:45:43;3.10;;;1.10;;
35691;SDS011;26978;44.830;-0.674;2023-05-16T11:48:09;12.63;;;1.60;;
35691;SDS011;26978;44.830;-0.674;2023-05-16T11:50:35;4.97;;;1.58;;
35691;SDS011;26978;44.830;-0.674;2023-05-16T11:53:01;6.28;;;1.30;;
35691;SDS011;26978;44.830;-0.674;2023-05-16T11:55:28;5.43;;;1.33;;
35691;SDS011;26978;44.830;-0.674;2023-05-16T11:57:56;2.90;;;0.90;;
35691;SDS011;26978;44.830;-0.674;2023-05-16T12:00:23;8.15;;;1.38;;
35691;SDS011;26978;44.830;-0.674;2023-05-16T12:02:50;3.63;;;1.30;;
35691;SDS011;26978;44.830;-0.674;2023-05-16T12:05:17;6.30;;;1.25;;
35691;SDS011;26978;44.830;-0.674;2023-05-16T12:07:45;4.30;;;1.10;;
35691;SDS011;26978;44.830;-0.674;2023-05-16T12:10:12;7.97;;;1.50;;
35691;SDS011;26978;44.830;-0.674;2023-05-16T12:12:39;8.52;;;1.38;;
35691;SDS011;26978;44.830;-0.674;2023-05-16T12:15:07;5.80;;;1.50;;
35691;SDS011;26978;44.830;-0.674;2023-05-16T12:17:33;7.18;;;1.60;;
35691;SDS011;26978;44.830;-0.674;2023-05-16T12:20:00;5.32;;;1.23;;
35691;SDS011;26978;44.830;-0.674;2023-05-16T12:22:30;4.18;;;1.13;;
35691;SDS011;26978;44.830;-0.674;2023-05-16T12:24:58;6.85;;;1.10;;
35691;SDS011;26978;44.830;-0.674;2023-05-16T12:27:24;3.97;;;1.10;;
35691;SDS011;26978;44.830;-0.674;2023-05-16T12:29:51;5.47;;;1.10;;
35691;SDS011;26978;44.830;-0.674;2023-05-16T12:32:17;3.35;;;1.35;;
35691;SDS011;26978;44.830;-0.674;2023-05-16T12:34:50;5.85;;;1.27;;
35691;SDS011;26978;44.830;-0.674;2023-05-16T12:37:17;3.35;;;1.08;;
35691;SDS011;26978;44.830;-0.674;2023-05-16T12:39:43;6.75;;;1.35;;
35691;SDS011;26978;44.830;-0.674;2023-05-16T12:42:12;5.28;;;1.50;;
35691;SDS011;26978;44.830;-0.674;2023-05-16T12:44:38;5.47;;;1.23;;
35691;SDS011;26978;44.830;-0.674;2023-05-16T12:47:13;5.30;;;1.60;;
35691;SDS011;26978;44.830;-0.674;2023-05-16T12:49:45;6.57;;;1.52;;
35691;SDS011;26978;44.830;-0.674;2023-05-16T12:52:19;5.28;;;1.35;;
35691;SDS011;26978;44.830;-0.674;2023-05-16T12:54:48;5.63;;;1.13;;
35691;SDS011;26978;44.830;-0.674;2023-05-16T12:57:14;6.00;;;1.25;;
35691;SDS011;26978;44.830;-0.674;2023-05-16T12:59:40;4.43;;;1.20;;
35691;SDS011;26978;44.830;-0.674;2023-05-16T13:02:06;3.88;;;1.50;;
35691;SDS011;26978;44.830;-0.674;2023-05-16T13:04:31;3.50;;;1.15;;
35691;SDS011;26978;44.830;-0.674;2023-05-16T13:06:57;6.00;;;1.27;;
35691;SDS011;26978;44.830;-0.674;2023-05-16T13:09:23;5.35;;;1.55;;
35691;SDS011;26978;44.830;-0.674;2023-05-16T13:11:48;5.82;;;1.42;;
35691;SDS011;26978;44.830;-0.674;2023-05-16T13:14:14;4.88;;;0.95;;
35691;SDS011;26978;44.830;-0.674;2023-05-16T13:16:41;5.82;;;1.60;;
35691;SDS011;26978;44.830;-0.674;2023-05-16T13:19:07;5.78;;;1.33;;
35691;SDS011;26978;44.830;-0.674;2023-05-16T13:21:33;5.38;;;1.15;;
35691;SDS011;26978;44.830;-0.674;2023-05-16T13:23:59;6.10;;;1.17;;
35691;SDS011;26978;44.830;-0.674;2023-05-16T13:26:25;6.40;;;1.38;;
35691;SDS011;26978;44.830;-0.674;2023-05-16T13:28:51;4.35;;;1.45;;
35691;SDS011;26978;44.830;-0.674;2023-05-16T13:31:18;13.10;;;1.77;;
35691;SDS011;26978;44.830;-0.674;2023-05-16T13:33:47;7.25;;;1.08;;
35691;SDS011;26978;44.830;-0.674;2023-05-16T13:36:13;5.00;;;1.13;;
35691;SDS011;26978;44.830;-0.674;2023-05-16T13:38:38;6.32;;;1.10;;
35691;SDS011;26978;44.830;-0.674;2023-05-16T13:41:05;6.18;;;1.48;;
35691;SDS011;26978;44.830;-0.674;2023-05-16T13:43:31;7.15;;;1.15;;
35691;SDS011;26978;44.830;-0.674;2023-05-16T13:45:56;4.28;;;1.25;;
35691;SDS011;26978;44.830;-0.674;2023-05-16T13:48:22;5.13;;;0.90;;
35691;SDS011;26978;44.830;-0.674;2023-05-16T13:50:48;6.65;;;1.00;;
35691;SDS011;26978;44.830;-0.674;2023-05-16T13:53:16;4.35;;;1.05;;
35691;SDS011;26978;44.830;-0.674;2023-05-16T13:55:41;4.65;;;1.30;;
35691;SDS011;26978;44.830;-0.674;2023-05-16T13:58:07;6.45;;;1.55;;
35691;SDS011;26978;44.830;-0.674;2023-05-16T14:00:33;3.92;;;0.85;;
35691;SDS011;26978;44.830;-0.674;2023-05-16T14:02:58;2.00;;;0.60;;
35691;SDS011;26978;44.830;-0.674;2023-05-16T14:05:24;3.83;;;1.10;;
35691;SDS011;26978;44.830;-0.674;2023-05-16T14:07:50;5.40;;;1.35;;
35691;SDS011;26978;44.830;-0.674;2023-05-16T14:10:16;10.30;;;1.52;;
35691;SDS011;26978;44.830;-0.674;2023-05-16T14:12:41;3.10;;;1.02;;
35691;SDS011;26978;44.830;-0.674;2023-05-16T14:15:07;8.27;;;1.30;;
35691;SDS011;26978;44.830;-0.674;2023-05-16T14:17:33;5.13;;;1.70;;
35691;SDS011;26978;44.830;-0.674;2023-05-16T14:19:59;6.47;;;1.30;;
35691;SDS011;26978;44.830;-0.674;2023-05-16T14:22:24;6.88;;;1.60;;
35691;SDS011;26978;44.830;-0.674;2023-05-16T14:24:50;6.47;;;1.30;;
35691;SDS011;26978;44.830;-0.674;2023-05-16T14:27:16;5.65;;;1.17;;
35691;SDS011;26978;44.830;-0.674;2023-05-16T14:29:41;5.32;;;1.40;;
35691;SDS011;26978;44.830;-0.674;2023-05-16T14:32:08;6.20;;;1.20;;
35691;SDS011;26978;44.830;-0.674;2023-05-16T14:34:35;6.28;;;1.40;;
35691;SDS011;26978;44.830;-0.674;2023-05-16T14:37:00;6.28;;;1.20;;
35691;SDS011;26978;44.830;-0.674;2023-05-16T14:39:26;3.22;;;1.08;;
35691;SDS011;26978;44.830;-0.674;2023-05-16T14:41:52;3.75;;;1.00;;
35691;SDS011;26978;44.830;-0.674;2023-05-16T14:44:17;5.78;;;1.52;;
35691;SDS011;26978;44.830;-0.674;2023-05-16T14:46:45;3.63;;;1.02;;
35691;SDS011;26978;44.830;-0.674;2023-05-16T14:49:11;4.93;;;1.00;;
35691;SDS011;26978;44.830;-0.674;2023-05-16T14:51:37;6.65;;;1.27;;
35691;SDS011;26978;44.830;-0.674;2023-05-16T14:54:02;9.00;;;1.45;;
35691;SDS011;26978;44.830;-0.674;2023-05-16T14:56:29;6.85;;;1.10;;
35691;SDS011;26978;44.830;-0.674;2023-05-16T14:58:55;9.45;;;1.15;;